Time;durP1;ratioP1;P1;durP2;ratioP2;P2;SDS_P1;SDS_P2;PMS_P1;PMS_P2;Temp;Humidity;BMP_temperature;BMP_pressure;BME280_temperature;BME280_humidity;BME280_pressure;Samples;Min_cycle;Max_cycle;Signal;HPM_P1;HPM_P2
2022/09/23 00:00:25;;;;;;;2.70;2.40;;;20.00;57.70;21.20;101032.00;;;;4989447;28;20198;-45
2022/09/23 00:02:51;;;;;;;2.37;2.17;;;20.00;57.70;21.20;101029.00;;;;4989431;28;20269;-44
2022/09/23 00:05:17;;;;;;;2.57;2.37;;;19.90;57.70;21.10;101026.00;;;;4989453;28;20273;-44
2022/09/23 00:07:43;;;;;;;2.77;2.40;;;19.90;57.70;21.10;101037.00;;;;4989391;28;20173;-45
2022/09/23 00:10:09;;;;;;;2.67;2.20;;;19.90;57.60;21.10;101028.00;;;;4989761;28;20579;-45
2022/09/23 00:12:34;;;;;;;2.70;2.50;;;20.00;57.80;21.10;101024.00;;;;4989246;28;20181;-43
2022/09/23 00:15:00;;;;;;;2.77;2.43;;;19.90;57.70;21.10;101024.00;;;;4988615;28;20222;-42
2022/09/23 00:17:26;;;;;;;2.60;2.40;;;19.90;57.70;21.10;101027.00;;;;4989257;28;20654;-44
2022/09/23 00:19:54;;;;;;;2.60;2.40;;;19.90;57.80;21.10;101027.00;;;;4989263;28;20200;-43
2022/09/23 00:22:20;;;;;;;2.50;2.30;;;19.90;57.80;21.00;101020.00;;;;4989476;28;20559;-43
2022/09/23 00:24:45;;;;;;;2.70;2.40;;;19.90;57.80;21.00;101019.00;;;;4988995;28;20322;-45
2022/09/23 00:27:11;;;;;;;2.97;2.50;;;19.90;57.90;21.00;101009.00;;;;4989233;28;20235;-42
2022/09/23 00:29:37;;;;;;;3.60;2.43;;;19.90;57.90;21.00;101009.00;;;;4989048;28;20589;-45
2022/09/23 00:32:03;;;;;;;2.80;2.40;;;19.80;57.80;21.00;101012.00;;;;4989246;28;20658;-42
2022/09/23 00:34:29;;;;;;;3.20;2.40;;;19.80;57.80;21.00;101010.00;;;;4971481;28;20284;-45
2022/09/23 00:36:55;;;;;;;2.90;2.50;;;19.80;57.90;21.00;101013.00;;;;4989143;28;20659;-44
2022/09/23 00:39:22;;;;;;;2.50;2.30;;;19.80;57.90;21.00;101010.00;;;;4988839;28;20204;-43
2022/09/23 00:41:48;;;;;;;3.23;2.30;;;19.80;57.90;21.00;101001.00;;;;4989436;28;20172;-44
2022/09/23 00:44:42;;;;;;;2.93;2.13;;;19.80;57.90;21.00;101003.00;;;;4989111;28;20197;-44
2022/09/23 00:47:19;;;;;;;2.33;2.13;;;19.80;57.90;20.90;100992.00;;;;4969847;28;20548;-43
2022/09/23 00:49:49;;;;;;;2.47;2.27;;;19.70;57.90;20.90;101000.00;;;;4968964;28;20511;-44
2022/09/23 00:52:17;;;;;;;2.63;2.33;;;19.70;57.90;20.90;101005.00;;;;4968826;28;20668;-44
2022/09/23 00:54:45;;;;;;;3.17;2.40;;;19.70;58.00;20.90;101009.00;;;;4968114;28;20295;-45
2022/09/23 00:57:10;;;;;;;3.37;2.33;;;19.70;57.90;20.90;101003.00;;;;4968216;28;20668;-44
2022/09/23 00:59:36;;;;;;;2.60;2.10;;;19.70;58.00;20.90;101000.00;;;;4967933;28;20261;-44
2022/09/23 01:02:02;;;;;;;2.50;2.10;;;19.70;58.00;20.90;101004.00;;;;4969158;28;20179;-44
2022/09/23 01:04:28;;;;;;;2.27;2.07;;;19.70;58.00;20.80;101003.00;;;;4951484;28;20232;-44
2022/09/23 01:06:53;;;;;;;2.40;2.20;;;19.70;57.90;20.80;100998.00;;;;4968349;28;20204;-44
2022/09/23 01:09:19;;;;;;;2.70;2.13;;;19.60;57.90;20.80;100991.00;;;;4969226;28;20184;-44
2022/09/23 01:11:53;;;;;;;2.53;2.13;;;19.70;58.00;20.80;100994.00;;;;4968296;28;20183;-43
2022/09/23 01:14:40;;;;;;;2.63;2.03;;;19.70;58.00;20.80;100983.00;;;;4967854;28;20196;-42
2022/09/23 01:17:10;;;;;;;2.47;2.20;;;19.70;58.00;20.80;100989.00;;;;4969532;28;20826;-45
2022/09/23 01:19:35;;;;;;;2.40;2.20;;;19.70;58.00;20.80;100985.00;;;;4968251;28;20188;-44
2022/09/23 01:22:16;;;;;;;2.30;2.10;;;19.60;58.00;20.70;100993.00;;;;4969269;28;20256;-46
2022/09/23 01:25:26;;;;;;;2.43;2.23;;;19.60;58.00;20.70;100990.00;;;;4969000;28;20193;-44
2022/09/23 01:28:32;;;;;;;2.37;2.17;;;19.60;58.00;20.70;100988.00;;;;4968708;28;20263;-42
2022/09/23 01:31:15;;;;;;;2.30;2.10;;;19.50;58.00;20.60;100980.00;;;;4967826;28;20178;-43
2022/09/23 01:33:55;;;;;;;2.40;2.20;;;19.60;58.00;20.60;100970.00;;;;4969356;28;20588;-45
2022/09/23 01:36:25;;;;;;;2.40;2.20;;;19.50;58.00;20.60;100976.00;;;;4968884;28;20185;-43
2022/09/23 01:39:12;;;;;;;2.40;2.20;;;19.50;58.00;20.60;100980.00;;;;4952135;28;20196;-45
2022/09/23 01:41:58;;;;;;;2.30;2.10;;;19.50;58.00;20.60;100976.00;;;;4952594;28;20291;-45
2022/09/23 01:44:37;;;;;;;2.30;2.10;;;19.50;58.00;20.60;100974.00;;;;4968513;28;20207;-44
2022/09/23 01:47:03;;;;;;;2.20;2.00;;;19.50;58.00;20.60;100972.00;;;;4968175;28;20235;-43
2022/09/23 01:49:55;;;;;;;2.87;2.10;;;19.50;58.10;20.60;100970.00;;;;4969727;28;20181;-45
2022/09/23 01:52:31;;;;;;;2.33;2.13;;;19.50;58.10;20.50;100970.00;;;;4971295;28;20212;-43
2022/09/23 01:55:18;;;;;;;2.30;2.10;;;19.50;58.20;20.50;100961.00;;;;4971201;28;20224;-44
2022/09/23 01:57:59;;;;;;;2.17;1.93;;;19.40;58.10;20.50;100967.00;;;;4956877;28;20269;-43
2022/09/23 02:00:25;;;;;;;2.20;2.00;;;19.40;58.10;20.50;100975.00;;;;4955539;28;20668;-44
2022/09/23 02:02:58;;;;;;;2.60;2.10;;;19.40;58.10;20.50;100977.00;;;;4954884;28;20244;-45
2022/09/23 02:05:29;;;;;;;2.50;2.10;;;19.40;58.20;20.50;100976.00;;;;4938929;28;20702;-45
2022/09/23 02:07:59;;;;;;;2.20;2.00;;;19.40;58.20;20.50;100973.00;;;;4971294;28;20320;-43
2022/09/23 02:10:36;;;;;;;2.17;1.97;;;19.40;58.20;20.40;100970.00;;;;4971175;28;20197;-44
2022/09/23 02:13:07;;;;;;;2.30;2.10;;;19.40;58.20;20.40;100973.00;;;;4970550;28;20165;-44
2022/09/23 02:15:40;;;;;;;2.20;2.00;;;19.40;58.30;20.40;100968.00;;;;4954986;28;20280;-45
2022/09/23 02:18:16;;;;;;;2.47;2.27;;;19.30;58.30;20.40;100956.00;;;;4971379;28;20161;-45
2022/09/23 02:20:41;;;;;;;2.33;2.13;;;19.30;58.30;20.40;100961.00;;;;4956081;28;20157;-45
2022/09/23 02:23:30;;;;;;;2.20;2.00;;;19.30;58.20;20.40;100958.00;;;;4970335;28;20182;-46
2022/09/23 02:26:38;;;;;;;2.17;1.97;;;19.30;58.20;20.40;100957.00;;;;4956072;28;20682;-44
2022/09/23 02:29:29;;;;;;;2.30;2.10;;;19.30;58.30;20.40;100954.00;;;;4928124;28;20596;-45
2022/09/23 02:31:59;;;;;;;1.97;1.87;;;19.30;58.30;20.30;100957.00;;;;4970414;28;20177;-43
2022/09/23 02:34:45;;;;;;;2.00;1.90;;;19.30;58.30;20.30;100951.00;;;;4970157;28;20193;-46
2022/09/23 02:37:33;;;;;;;2.63;2.30;;;19.30;58.30;20.30;100959.00;;;;4971653;28;20157;-45
2022/09/23 02:40:30;;;;;;;2.30;2.10;;;19.30;58.30;20.30;100950.00;;;;4970423;28;20173;-45
2022/09/23 02:43:04;;;;;;;2.13;1.93;;;19.30;58.30;20.30;100944.00;;;;4971698;28;20172;-44
2022/09/23 02:45:30;;;;;;;2.50;2.30;;;19.30;58.30;20.30;100945.00;;;;4970096;28;20666;-43
2022/09/23 02:48:03;;;;;;;2.13;1.93;;;19.20;58.20;20.20;100920.00;;;;4971346;28;20180;-44
2022/09/23 02:50:29;;;;;;;2.30;2.10;;;19.20;58.20;20.20;100931.00;;;;4955002;28;20162;-45
2022/09/23 02:52:55;;;;;;;2.33;2.13;;;19.20;58.30;20.20;100928.00;;;;4970449;28;20165;-43
2022/09/23 02:55:22;;;;;;;2.40;2.20;;;19.20;58.20;20.20;100922.00;;;;4971496;28;20212;-45
2022/09/23 02:57:48;;;;;;;1.97;1.87;;;19.20;58.20;20.20;100922.00;;;;4953853;28;20185;-45
2022/09/23 03:00:14;;;;;;;2.10;1.90;;;19.20;58.30;20.20;100923.00;;;;4969346;28;20247;-42
2022/09/23 03:03:01;;;;;;;2.37;2.17;;;19.20;58.30;20.20;100918.00;;;;4969971;28;20165;-42
2022/09/23 03:05:31;;;;;;;2.30;2.10;;;19.20;58.30;20.20;100916.00;;;;4969723;28;20208;-45
2022/09/23 03:08:42;;;;;;;2.13;2.00;;;19.10;58.30;20.20;100915.00;;;;4971053;28;20165;-43
2022/09/23 03:11:10;;;;;;;2.20;2.00;;;19.10;58.30;20.10;100913.00;;;;4974235;28;20192;-44
2022/09/23 03:14:15;;;;;;;2.20;2.10;;;19.10;58.30;20.10;100916.00;;;;4953390;28;20204;-43
2022/09/23 03:16:59;;;;;;;2.40;2.20;;;19.10;58.40;20.10;100903.00;;;;4970228;28;20256;-44
2022/09/23 03:20:03;;;;;;;2.30;2.10;;;19.10;58.50;20.10;100925.00;;;;4969822;28;20602;-44
2022/09/23 03:22:38;;;;;;;2.20;2.00;;;19.10;58.50;20.10;100918.00;;;;4970417;28;20669;-44
2022/09/23 03:25:32;;;;;;;2.20;2.00;;;19.00;58.50;20.10;100906.00;;;;4954397;28;20184;-43
2022/09/23 03:27:59;;;;;;;3.73;2.00;;;19.00;58.50;20.10;100918.00;;;;4967431;28;20244;-44
2022/09/23 03:30:25;;;;;;;3.00;2.00;;;19.00;58.60;20.10;100914.00;;;;4969553;28;20199;-45
2022/09/23 03:32:51;;;;;;;2.07;1.97;;;19.00;58.60;20.10;100920.00;;;;4970798;28;20212;-44
2022/09/23 03:35:16;;;;;;;2.50;2.30;;;19.00;58.60;20.00;100912.00;;;;4969016;28;20631;-44
2022/09/23 03:38:06;;;;;;;2.43;2.00;;;19.00;58.60;20.00;100919.00;;;;4970507;28;20728;-42
2022/09/23 03:40:34;;;;;;;6.53;2.17;;;19.00;58.60;20.00;100923.00;;;;4970313;28;20172;-42
2022/09/23 03:43:01;;;;;;;4.60;2.20;;;19.00;58.50;20.00;100917.00;;;;4969076;28;20169;-42
2022/09/23 03:45:30;;;;;;;2.23;2.00;;;19.00;58.40;20.00;100902.00;;;;4969029;28;20561;-43
2022/09/23 03:47:56;;;;;;;3.70;2.43;;;19.00;58.50;20.00;100913.00;;;;4969725;28;20191;-43
2022/09/23 03:50:21;;;;;;;2.30;2.10;;;18.90;58.50;20.00;100835.00;;;;4970736;28;20177;-45
2022/09/23 03:52:49;;;;;;;2.73;2.10;;;18.90;58.60;20.00;100907.00;;;;4970101;28;20177;-44
2022/09/23 03:55:15;;;;;;;3.30;2.30;;;18.90;58.60;20.00;100913.00;;;;4970277;28;20392;-45
2022/09/23 03:57:41;;;;;;;2.37;2.00;;;18.90;58.60;20.00;100910.00;;;;4970722;28;20212;-45
2022/09/23 04:00:08;;;;;;;3.13;2.10;;;18.90;58.50;20.00;100902.00;;;;4970330;28;20172;-45
2022/09/23 04:02:34;;;;;;;2.30;2.00;;;18.90;58.50;20.00;100905.00;;;;4970651;28;20618;-46
2022/09/23 04:05:00;;;;;;;3.57;2.10;;;18.90;58.60;20.00;100896.00;;;;4969902;28;20224;-46
2022/09/23 04:07:25;;;;;;;2.10;2.00;;;18.80;58.40;20.00;100893.00;;;;4970401;28;20219;-45
2022/09/23 04:09:52;;;;;;;2.97;2.10;;;18.80;58.40;19.90;100895.00;;;;4970697;28;20259;-44
2022/09/23 04:12:18;;;;;;;2.47;2.27;;;18.80;58.40;19.90;100898.00;;;;4970755;28;20189;-43
2022/09/23 04:14:43;;;;;;;2.33;2.13;;;18.80;58.50;19.90;100902.00;;;;4970536;28;20212;-44
2022/09/23 04:17:09;;;;;;;3.20;2.10;;;18.80;58.50;19.90;100908.00;;;;4970988;28;20203;-43
2022/09/23 04:19:35;;;;;;;3.00;2.00;;;18.80;58.50;19.90;100894.00;;;;4971121;28;20189;-43
2022/09/23 04:22:01;;;;;;;2.90;2.17;;;18.80;58.50;19.90;100899.00;;;;4970431;28;20177;-43
2022/09/23 04:24:27;;;;;;;2.20;1.90;;;18.80;58.50;19.90;100888.00;;;;4968598;28;20287;-43
2022/09/23 04:26:53;;;;;;;3.20;2.13;;;18.80;58.60;19.90;100892.00;;;;4966876;28;20185;-43
2022/09/23 04:29:20;;;;;;;7.33;2.30;;;18.80;58.50;19.80;100888.00;;;;4969164;28;20199;-44
2022/09/23 04:31:45;;;;;;;3.53;2.23;;;18.70;58.40;19.80;100882.00;;;;4969667;28;20252;-43
2022/09/23 04:34:12;;;;;;;3.93;2.20;;;18.70;58.40;19.80;100871.00;;;;4969495;28;20328;-43
2022/09/23 04:36:38;;;;;;;3.27;2.37;;;18.70;58.30;19.80;100869.00;;;;4968312;28;20253;-45
2022/09/23 04:39:04;;;;;;;2.73;2.40;;;18.70;58.30;19.80;100867.00;;;;4969762;28;20165;-43
2022/09/23 04:41:30;;;;;;;3.13;2.40;;;18.70;58.40;19.80;100869.00;;;;4969433;28;20181;-44
2022/09/23 04:43:56;;;;;;;4.23;2.63;;;18.70;58.20;19.80;100867.00;;;;4972056;28;20818;-40
2022/09/23 04:46:22;;;;;;;4.70;2.37;;;18.70;58.20;19.80;100872.00;;;;4970710;28;20255;-46
2022/09/23 04:48:48;;;;;;;3.07;2.67;;;18.60;58.20;19.80;100869.00;;;;4969408;28;20264;-44
2022/09/23 04:51:18;;;;;;;4.07;2.40;;;18.60;58.20;19.70;100866.00;;;;4969638;28;20177;-43
2022/09/23 04:53:46;;;;;;;4.67;2.40;;;18.60;58.20;19.70;100861.00;;;;4967875;28;20205;-44
2022/09/23 04:56:13;;;;;;;4.43;2.50;;;18.70;58.20;19.70;100863.00;;;;4967847;28;20285;-45
2022/09/23 04:58:39;;;;;;;3.27;2.53;;;18.60;58.00;19.70;100858.00;;;;4969199;28;20183;-44
2022/09/23 05:01:23;;;;;;;3.53;2.57;;;18.60;57.90;19.70;100856.00;;;;4967616;28;20560;-44
2022/09/23 05:03:50;;;;;;;3.03;2.73;;;18.60;57.80;19.70;100855.00;;;;4969271;28;20189;-44
2022/09/23 05:06:15;;;;;;;3.70;2.60;;;18.60;57.70;19.60;100857.00;;;;4969338;28;20192;-45
2022/09/23 05:08:52;;;;;;;3.70;2.60;;;18.60;57.70;19.60;100847.00;;;;4969609;28;20188;-44
2022/09/23 05:11:18;;;;;;;4.00;2.70;;;18.50;57.60;19.60;100865.00;;;;4967980;28;20171;-44
2022/09/23 05:13:48;;;;;;;3.80;2.73;;;18.50;57.60;19.60;100857.00;;;;4969509;28;20628;-44
2022/09/23 05:16:14;;;;;;;2.60;2.40;;;18.50;57.60;19.60;100857.00;;;;4968225;28;20752;-44
2022/09/23 05:18:41;;;;;;;6.43;2.87;;;18.50;57.60;19.60;100849.00;;;;4969777;28;20369;-44
2022/09/23 05:21:15;;;;;;;3.57;2.70;;;18.50;57.60;19.50;100855.00;;;;4969271;28;20170;-43
2022/09/23 05:23:41;;;;;;;8.03;2.93;;;18.50;57.60;19.50;100864.00;;;;4968452;28;20259;-44
2022/09/23 05:26:09;;;;;;;3.93;2.63;;;18.50;57.60;19.50;100855.00;;;;4973215;28;20200;-44
2022/09/23 05:28:38;;;;;;;4.87;2.67;;;18.50;57.80;19.50;100858.00;;;;4972815;28;20261;-44
2022/09/23 05:31:07;;;;;;;5.10;2.50;;;18.50;57.60;19.50;100851.00;;;;4972701;28;20212;-43
2022/09/23 05:33:34;;;;;;;4.43;2.63;;;18.50;57.70;19.50;100848.00;;;;4972503;28;20197;-44
2022/09/23 05:36:00;;;;;;;5.40;2.80;;;18.40;57.70;19.50;100848.00;;;;4972404;28;20208;-44
2022/09/23 05:38:30;;;;;;;4.20;2.77;;;18.40;57.70;19.50;100852.00;;;;4972887;28;20176;-44
2022/09/23 05:41:00;;;;;;;4.40;2.60;;;18.40;57.60;19.50;100853.00;;;;4972426;28;20641;-45
2022/09/23 05:43:26;;;;;;;2.53;2.33;;;18.40;57.70;19.50;100856.00;;;;4972469;28;20169;-43
2022/09/23 05:46:06;;;;;;;3.67;2.60;;;18.40;58.20;19.50;100860.00;;;;4972330;28;20192;-42
2022/09/23 05:48:33;;;;;;;2.43;2.23;;;18.40;57.70;19.50;100864.00;;;;4972684;28;20173;-43
2022/09/23 05:50:59;;;;;;;3.63;2.53;;;18.40;57.80;19.40;100872.00;;;;4972480;28;20201;-43
2022/09/23 05:53:29;;;;;;;2.93;2.33;;;18.40;57.90;19.40;100871.00;;;;4971073;28;20638;-43
2022/09/23 05:55:56;;;;;;;3.00;2.33;;;18.30;57.80;19.40;100872.00;;;;4972542;28;20198;-43
2022/09/23 05:58:22;;;;;;;2.67;2.30;;;18.30;57.80;19.40;100874.00;;;;4972232;28;20161;-43
2022/09/23 06:00:48;;;;;;;2.50;2.23;;;18.30;57.80;19.40;100873.00;;;;4972055;28;20238;-43
2022/09/23 06:03:16;;;;;;;2.70;2.50;;;18.30;57.70;19.40;100867.00;;;;4972429;28;20640;-43
2022/09/23 06:05:42;;;;;;;2.23;2.03;;;18.30;57.70;19.40;100868.00;;;;4972678;28;20184;-44
2022/09/23 06:08:08;;;;;;;2.70;2.50;;;18.40;57.80;19.40;100864.00;;;;4971969;28;20592;-43
2022/09/23 06:10:41;;;;;;;2.57;2.33;;;18.30;57.70;19.40;100859.00;;;;4972227;28;20186;-43
2022/09/23 06:13:07;;;;;;;2.70;2.40;;;18.30;57.70;19.40;100862.00;;;;4971101;28;20206;-43
2022/09/23 06:15:34;;;;;;;2.60;2.40;;;18.30;57.70;19.40;100866.00;;;;4972225;28;20205;-42
2022/09/23 06:18:00;;;;;;;3.40;2.30;;;18.30;57.70;19.40;100870.00;;;;4974307;28;20425;-43
2022/09/23 06:20:26;;;;;;;2.87;2.30;;;18.30;57.80;19.30;100863.00;;;;4975444;28;20708;-42
2022/09/23 06:22:52;;;;;;;3.30;2.40;;;18.30;57.80;19.30;100868.00;;;;4975021;28;20190;-43
2022/09/23 06:25:18;;;;;;;5.80;2.57;;;18.20;57.70;19.30;100871.00;;;;4973197;28;20711;-43
2022/09/23 06:27:53;;;;;;;3.77;2.63;;;18.20;57.70;19.30;100883.00;;;;4972296;28;20177;-43
2022/09/23 06:30:19;;;;;;;5.30;2.30;;;18.20;58.40;19.30;100873.00;;;;4971627;28;20188;-43
2022/09/23 06:32:52;;;;;;;2.93;2.60;;;18.20;57.80;19.30;100869.00;;;;4971959;28;20263;-43
2022/09/23 06:35:19;;;;;;;3.50;2.30;;;18.20;58.40;19.30;100864.00;;;;4969380;28;20201;-44
2022/09/23 06:37:45;;;;;;;6.60;2.67;;;18.20;57.80;19.30;100864.00;;;;4972786;28;20166;-43
2022/09/23 06:40:11;;;;;;;5.80;2.40;;;18.20;57.80;19.30;100865.00;;;;4973273;28;20540;-43
2022/09/23 06:42:37;;;;;;;6.60;2.70;;;18.10;57.70;19.20;100866.00;;;;4971571;28;20854;-44
2022/09/23 06:45:03;;;;;;;5.93;2.70;;;18.20;57.80;19.20;100868.00;;;;4971567;28;20199;-43
2022/09/23 06:47:28;;;;;;;4.67;2.60;;;18.10;57.70;19.20;100869.00;;;;4971762;28;20191;-43
2022/09/23 06:49:54;;;;;;;6.03;2.70;;;18.10;57.90;19.20;100864.00;;;;4971046;28;20182;-43
2022/09/23 06:52:20;;;;;;;6.17;2.70;;;18.20;58.00;19.20;100862.00;;;;4970669;28;20256;-43
2022/09/23 06:54:49;;;;;;;7.53;2.50;;;18.10;57.80;19.20;100866.00;;;;4970905;28;20459;-44
2022/09/23 06:57:14;;;;;;;4.10;2.50;;;18.20;57.90;19.20;100863.00;;;;4971392;28;20268;-43
2022/09/23 06:59:40;;;;;;;3.93;2.30;;;18.20;57.80;19.20;100880.00;;;;4969990;28;20449;-43
2022/09/23 07:02:08;;;;;;;9.60;2.80;;;18.10;57.70;19.10;100873.00;;;;4971723;28;20174;-44
2022/09/23 07:04:33;;;;;;;7.37;2.60;;;18.10;57.60;19.10;100874.00;;;;4955777;28;20299;-44
2022/09/23 07:06:59;;;;;;;6.07;2.80;;;18.10;57.80;19.10;100876.00;;;;4950011;28;20203;-44
2022/09/23 07:09:26;;;;;;;6.73;2.40;;;18.10;58.00;19.10;100878.00;;;;4951607;28;20203;-44
2022/09/23 07:11:52;;;;;;;5.13;2.50;;;18.10;58.00;19.10;100875.00;;;;4960776;28;20180;-43
2022/09/23 07:14:18;;;;;;;3.60;2.60;;;18.10;58.00;18.90;100814.00;;;;4959166;28;20259;-43
2022/09/23 07:16:43;;;;;;;2.70;2.27;;;18.10;58.00;19.10;100875.00;;;;4956263;28;20192;-41
2022/09/23 07:19:11;;;;;;;5.63;2.80;;;18.10;58.00;19.10;100878.00;;;;4946729;28;20666;-45
2022/09/23 07:21:36;;;;;;;6.27;2.63;;;18.10;58.00;19.10;100887.00;;;;4955731;28;20263;-45
2022/09/23 07:24:02;;;;;;;3.87;2.60;;;18.10;58.10;19.00;100873.00;;;;4956632;28;20684;-43
2022/09/23 07:26:32;;;;;;;3.20;2.63;;;18.10;58.10;19.10;100875.00;;;;4964225;28;20193;-43
2022/09/23 07:29:03;;;;;;;6.30;2.73;;;18.20;58.10;19.10;100884.00;;;;4958616;28;21460;-43
2022/09/23 07:31:30;;;;;;;3.50;2.50;;;18.30;58.10;19.10;100878.00;;;;4946551;28;20199;-44
2022/09/23 07:33:56;;;;;;;3.83;2.40;;;18.30;58.00;19.10;100882.00;;;;4959537;28;20216;-44
2022/09/23 07:36:22;;;;;;;4.43;2.50;;;18.40;58.00;19.10;100874.00;;;;4965416;28;20297;-44
2022/09/23 07:38:48;;;;;;;4.00;2.47;;;18.40;58.00;19.10;100871.00;;;;4965168;28;20181;-43
2022/09/23 07:41:17;;;;;;;5.80;2.60;;;18.50;58.10;19.10;100878.00;;;;4965856;28;20185;-44
2022/09/23 07:43:43;;;;;;;3.63;2.47;;;18.40;58.10;19.10;100887.00;;;;4958608;28;20231;-43
2022/09/23 07:46:13;;;;;;;3.83;2.60;;;18.50;58.10;19.20;100889.00;;;;4960922;28;22265;-43
2022/09/23 07:48:38;;;;;;;4.00;2.43;;;18.50;58.20;19.20;100885.00;;;;4951311;28;20184;-43
2022/09/23 07:51:12;;;;;;;7.80;2.50;;;18.50;58.40;19.20;100888.00;;;;4964651;28;21015;-44
2022/09/23 07:53:38;;;;;;;5.53;2.57;;;18.50;58.50;19.20;100880.00;;;;4963674;28;20445;-44
2022/09/23 07:56:05;;;;;;;5.70;2.60;;;18.60;58.90;19.20;100882.00;;;;4951338;28;20229;-43
2022/09/23 07:58:31;;;;;;;4.90;2.50;;;18.50;59.00;19.20;100891.00;;;;4958642;28;20224;-43
2022/09/23 08:01:09;;;;;;;6.97;2.53;;;18.50;58.90;19.20;100884.00;;;;4950636;28;20177;-43
2022/09/23 08:03:35;;;;;;;3.43;2.40;;;18.50;59.10;19.20;100886.00;;;;4963536;28;20205;-44
2022/09/23 08:06:11;;;;;;;8.33;2.50;;;18.60;59.10;19.20;100882.00;;;;4964768;28;20194;-44
2022/09/23 08:08:39;;;;;;;7.97;2.70;;;18.60;59.20;19.20;100884.00;;;;4958389;28;21477;-44
2022/09/23 08:11:07;;;;;;;7.33;2.50;;;18.60;59.20;19.20;100887.00;;;;4952249;28;20889;-44
2022/09/23 08:13:33;;;;;;;2.50;2.30;;;18.60;59.40;19.30;100881.00;;;;4964716;28;20200;-44
2022/09/23 08:15:58;;;;;;;5.87;2.60;;;18.60;59.40;19.30;100886.00;;;;4948403;28;20294;-44
2022/09/23 08:18:25;;;;;;;5.50;2.60;;;18.60;59.40;19.30;100883.00;;;;4955583;28;20214;-43
2022/09/23 08:20:51;;;;;;;6.03;2.53;;;18.60;59.50;19.30;100885.00;;;;4954949;28;20701;-43
2022/09/23 08:23:18;;;;;;;3.70;2.40;;;18.50;59.30;19.30;100881.00;;;;4963465;28;20190;-43
2022/09/23 08:25:45;;;;;;;3.17;2.23;;;18.50;59.30;19.30;100882.00;;;;4953470;28;20197;-45
2022/09/23 08:28:14;;;;;;;2.77;2.10;;;18.60;59.40;19.30;100879.00;;;;4953398;28;20590;-45
2022/09/23 08:30:41;;;;;;;3.27;2.40;;;18.60;59.30;19.30;100882.00;;;;4958755;28;20175;-44
2022/09/23 08:33:07;;;;;;;7.63;2.47;;;18.60;59.60;19.30;100879.00;;;;4956758;28;20962;-44
2022/09/23 08:35:32;;;;;;;4.90;2.60;;;18.60;59.80;19.30;100878.00;;;;4949724;28;20210;-43
2022/09/23 08:37:58;;;;;;;16.03;2.70;;;18.60;59.90;19.30;100855.00;;;;4960873;28;20181;-43
2022/09/23 08:40:24;;;;;;;8.03;3.03;;;18.60;60.30;19.30;100870.00;;;;4962891;28;20647;-43
2022/09/23 08:42:49;;;;;;;9.00;2.70;;;18.60;60.50;19.40;100877.00;;;;4964424;28;20233;-44
2022/09/23 08:45:22;;;;;;;8.33;2.93;;;18.60;61.70;19.40;100866.00;;;;4958188;28;20995;-44
2022/09/23 08:48:04;;;;;;;9.63;2.80;;;18.60;60.70;19.40;100859.00;;;;4960941;28;20227;-43
2022/09/23 08:50:47;;;;;;;9.17;2.67;;;18.60;60.60;19.40;100863.00;;;;4952138;28;20292;-44
2022/09/23 08:53:23;;;;;;;8.37;2.83;;;18.60;60.70;19.30;100857.00;;;;4959975;28;21614;-43
2022/09/23 08:55:51;;;;;;;6.77;2.50;;;18.50;60.60;19.40;100856.00;;;;4962575;28;20201;-44
2022/09/23 08:58:35;;;;;;;6.93;2.53;;;18.60;60.70;19.40;100861.00;;;;4953001;28;20715;-44
2022/09/23 09:01:40;;;;;;;10.23;3.07;;;18.60;60.70;19.40;100867.00;;;;4959139;28;20721;-43
2022/09/23 09:04:35;;;;;;;5.67;2.60;;;18.60;60.60;19.30;100856.00;;;;4972399;28;20286;-45
2022/09/23 09:07:13;;;;;;;5.07;2.40;;;18.60;60.70;19.30;100846.00;;;;4972359;28;20259;-44
2022/09/23 09:09:53;;;;;;;4.10;2.40;;;18.60;60.60;19.30;100862.00;;;;4972755;28;20174;-44
2022/09/23 09:12:40;;;;;;;5.53;2.60;;;18.60;60.60;19.30;100855.00;;;;4972549;28;20221;-44
2022/09/23 09:15:17;;;;;;;3.67;2.40;;;18.60;60.50;19.30;100864.00;;;;4972094;28;20208;-45
2022/09/23 09:18:09;;;;;;;5.17;2.37;;;18.60;60.40;19.30;100858.00;;;;4972726;28;20171;-44
2022/09/23 09:20:44;;;;;;;6.57;2.73;;;18.60;60.30;19.30;100852.00;;;;4972632;28;20282;-43
2022/09/23 09:23:38;;;;;;;4.27;2.40;;;18.60;60.40;19.40;100857.00;;;;4972333;28;20167;-43
2022/09/23 09:26:03;;;;;;;5.77;2.40;;;18.60;60.30;19.30;100855.00;;;;4973386;28;20179;-44
2022/09/23 09:28:45;;;;;;;4.03;2.40;;;18.60;60.30;19.40;100848.00;;;;4972049;28;20184;-44
2022/09/23 09:31:36;;;;;;;5.63;2.50;;;18.60;60.40;19.40;100853.00;;;;4971975;28;20252;-44
2022/09/23 09:34:21;;;;;;;2.20;2.00;;;18.60;60.30;19.40;100860.00;;;;4971476;28;20205;-45
2022/09/23 09:37:19;;;;;;;5.83;2.60;;;18.60;60.30;19.40;100856.00;;;;4972054;28;20210;-44
2022/09/23 09:39:44;;;;;;;4.30;2.50;;;18.60;60.30;19.30;100857.00;;;;4972986;28;20210;-43
2022/09/23 09:42:40;;;;;;;4.03;2.43;;;18.60;60.20;19.40;100844.00;;;;4973052;28;20176;-44
2022/09/23 09:45:18;;;;;;;4.73;2.50;;;18.60;60.20;19.40;100850.00;;;;4971957;28;20200;-44
2022/09/23 09:48:16;;;;;;;2.97;1.90;;;18.60;60.20;19.40;100839.00;;;;4972207;28;20549;-43
2022/09/23 09:50:47;;;;;;;2.60;2.27;;;18.60;60.10;19.40;100836.00;;;;4973532;28;20541;-43
2022/09/23 09:53:29;;;;;;;3.93;2.43;;;18.60;60.20;19.40;100832.00;;;;4972731;28;20633;-43
2022/09/23 09:56:05;;;;;;;3.87;2.30;;;18.60;60.10;19.40;100831.00;;;;4972816;28;20211;-44
2022/09/23 09:58:48;;;;;;;4.37;2.30;;;18.60;60.20;19.40;100830.00;;;;4975195;28;20200;-43
2022/09/23 10:01:33;;;;;;;3.23;2.20;;;18.60;60.10;19.40;100839.00;;;;4971698;28;20165;-44
2022/09/23 10:04:18;;;;;;;3.23;2.20;;;18.70;60.20;19.40;100833.00;;;;4971025;28;20220;-43
2022/09/23 10:06:43;;;;;;;4.30;2.10;;;18.70;60.20;19.40;100826.00;;;;4972345;28;20180;-44
2022/09/23 10:09:11;;;;;;;5.33;2.40;;;18.60;60.90;19.40;100835.00;;;;4971504;28;20564;-44
2022/09/23 10:11:37;;;;;;;2.50;2.10;;;18.60;60.10;19.40;100838.00;;;;4970322;28;20570;-43
2022/09/23 10:14:16;;;;;;;2.93;2.20;;;18.70;60.20;19.40;100831.00;;;;4972314;28;20201;-44
2022/09/23 10:16:42;;;;;;;2.90;2.17;;;18.70;60.20;19.40;100836.00;;;;4971912;28;20611;-42
2022/09/23 10:19:27;;;;;;;3.47;2.10;;;18.70;61.00;19.50;100828.00;;;;4972372;28;20408;-44
2022/09/23 10:21:59;;;;;;;3.07;2.20;;;18.70;60.20;19.50;100832.00;;;;4971311;28;20246;-44
2022/09/23 10:24:29;;;;;;;4.67;2.20;;;18.70;60.10;19.50;100828.00;;;;4971134;28;20262;-44
2022/09/23 10:27:01;;;;;;;3.00;2.37;;;18.70;60.10;19.40;100830.00;;;;4971452;28;20172;-43
2022/09/23 10:29:32;;;;;;;2.90;2.30;;;18.70;60.20;19.50;100821.00;;;;4971005;28;20637;-45
2022/09/23 10:32:37;;;;;;;3.37;2.20;;;18.70;60.10;19.50;100821.00;;;;4971148;28;20342;-44
2022/09/23 10:35:16;;;;;;;3.70;2.33;;;18.70;60.20;19.50;100818.00;;;;4972229;28;20212;-45
2022/09/23 10:37:55;;;;;;;2.50;2.10;;;18.70;60.10;19.50;100818.00;;;;4971993;28;20186;-43
2022/09/23 10:47:22;;;;;;;2.33;2.10;;;18.70;60.10;19.50;100807.00;;;;4971576;28;20546;-44
2022/09/23 10:50:37;;;;;;;2.07;1.87;;;18.80;60.20;19.60;100814.00;;;;4970350;28;20198;-44
2022/09/23 10:53:40;;;;;;;1.80;1.70;;;18.80;60.10;19.60;100809.00;;;;4965584;28;20213;-46
2022/09/23 10:56:36;;;;;;;2.20;2.00;;;18.80;60.10;19.60;100791.00;;;;4970660;28;20460;-45
2022/09/23 10:59:05;;;;;;;2.27;2.00;;;18.80;60.10;19.50;100807.00;;;;4970473;28;20213;-42
2022/09/23 11:02:16;;;;;;;3.07;2.20;;;18.80;60.10;19.60;100802.00;;;;4971611;28;20401;-42
2022/09/23 11:05:03;;;;;;;4.67;2.20;;;18.80;60.10;19.60;100804.00;;;;4970530;28;20189;-44
2022/09/23 11:07:49;;;;;;;2.97;2.17;;;18.90;60.30;19.60;100794.00;;;;4971838;28;20189;-44
2022/09/23 11:10:48;;;;;;;2.50;2.10;;;18.90;60.10;19.60;100795.00;;;;4989111;28;20234;-42
2022/09/23 11:13:44;;;;;;;2.53;2.00;;;18.90;60.10;19.60;100800.00;;;;4990056;28;20232;-42
2022/09/23 11:16:40;;;;;;;2.37;2.00;;;18.90;60.30;19.60;100795.00;;;;4990156;28;20250;-43
2022/09/23 11:20:08;;;;;;;2.60;2.00;;;18.90;60.30;19.70;100799.00;;;;4991010;28;20172;-42